sensor_id;sensor_type;location;lat;lon;timestamp;pressure;altitude;pressure_sealevel;temperature
19666;BMP180;9980;51.020;7.772;2023-09-07T00:01:00;98080.00;;;18.70
19666;BMP180;9980;51.020;7.772;2023-09-07T00:03:31;98082.00;;;18.70
19666;BMP180;9980;51.020;7.772;2023-09-07T00:05:58;98076.00;;;18.70
19666;BMP180;9980;51.020;7.772;2023-09-07T00:08:25;98076.00;;;18.70
19666;BMP180;9980;51.020;7.772;2023-09-07T00:10:52;98088.00;;;18.60
19666;BMP180;9980;51.020;7.772;2023-09-07T00:13:19;98078.00;;;18.60
19666;BMP180;9980;51.020;7.772;2023-09-07T00:15:46;98072.00;;;18.50
19666;BMP180;9980;51.020;7.772;2023-09-07T00:18:13;98076.00;;;18.50
19666;BMP180;9980;51.020;7.772;2023-09-07T00:20:39;98070.00;;;18.50
19666;BMP180;9980;51.020;7.772;2023-09-07T00:23:07;98082.00;;;18.50
19666;BMP180;9980;51.020;7.772;2023-09-07T00:25:34;98077.00;;;18.40
19666;BMP180;9980;51.020;7.772;2023-09-07T00:28:01;98085.00;;;18.40
19666;BMP180;9980;51.020;7.772;2023-09-07T00:30:28;98069.00;;;18.30
19666;BMP180;9980;51.020;7.772;2023-09-07T00:32:55;98073.00;;;18.30
19666;BMP180;9980;51.020;7.772;2023-09-07T00:35:22;98069.00;;;18.30
19666;BMP180;9980;51.020;7.772;2023-09-07T00:37:49;98075.00;;;18.20
19666;BMP180;9980;51.020;7.772;2023-09-07T00:40:16;98065.00;;;18.20
19666;BMP180;9980;51.020;7.772;2023-09-07T00:42:43;98069.00;;;18.20
19666;BMP180;9980;51.020;7.772;2023-09-07T00:45:10;98082.00;;;18.10
19666;BMP180;9980;51.020;7.772;2023-09-07T00:47:37;98074.00;;;18.10
19666;BMP180;9980;51.020;7.772;2023-09-07T00:50:05;98063.00;;;18.10
19666;BMP180;9980;51.020;7.772;2023-09-07T00:52:35;98066.00;;;18.00
19666;BMP180;9980;51.020;7.772;2023-09-07T00:55:07;98065.00;;;18.00
19666;BMP180;9980;51.020;7.772;2023-09-07T00:57:35;98062.00;;;18.00
19666;BMP180;9980;51.020;7.772;2023-09-07T01:00:05;98054.00;;;17.90
19666;BMP180;9980;51.020;7.772;2023-09-07T01:02:34;98070.00;;;17.90
19666;BMP180;9980;51.020;7.772;2023-09-07T01:05:04;98058.00;;;17.90
19666;BMP180;9980;51.020;7.772;2023-09-07T01:07:46;98067.00;;;17.80
19666;BMP180;9980;51.020;7.772;2023-09-07T01:10:14;98042.00;;;17.80
19666;BMP180;9980;51.020;7.772;2023-09-07T01:12:41;98069.00;;;17.70
19666;BMP180;9980;51.020;7.772;2023-09-07T01:15:09;98057.00;;;17.70
19666;BMP180;9980;51.020;7.772;2023-09-07T01:17:37;98048.00;;;17.70
19666;BMP180;9980;51.020;7.772;2023-09-07T01:20:07;98042.00;;;17.70
19666;BMP180;9980;51.020;7.772;2023-09-07T01:22:39;98052.00;;;17.60
19666;BMP180;9980;51.020;7.772;2023-09-07T01:25:07;98030.00;;;17.60
19666;BMP180;9980;51.020;7.772;2023-09-07T01:27:35;98047.00;;;17.60
19666;BMP180;9980;51.020;7.772;2023-09-07T01:30:03;98055.00;;;17.50
19666;BMP180;9980;51.020;7.772;2023-09-07T01:32:30;98041.00;;;17.50
19666;BMP180;9980;51.020;7.772;2023-09-07T01:34:59;98046.00;;;17.40
19666;BMP180;9980;51.020;7.772;2023-09-07T01:37:26;98043.00;;;17.40
19666;BMP180;9980;51.020;7.772;2023-09-07T01:39:53;98046.00;;;17.40
19666;BMP180;9980;51.020;7.772;2023-09-07T01:42:21;98043.00;;;17.40
19666;BMP180;9980;51.020;7.772;2023-09-07T01:44:48;98034.00;;;17.30
19666;BMP180;9980;51.020;7.772;2023-09-07T01:47:15;98034.00;;;17.30
19666;BMP180;9980;51.020;7.772;2023-09-07T01:49:42;98046.00;;;17.30
19666;BMP180;9980;51.020;7.772;2023-09-07T01:52:09;98040.00;;;17.30
19666;BMP180;9980;51.020;7.772;2023-09-07T01:54:37;98031.00;;;17.20
19666;BMP180;9980;51.020;7.772;2023-09-07T01:57:04;98032.00;;;17.20
19666;BMP180;9980;51.020;7.772;2023-09-07T01:59:31;98041.00;;;17.20
19666;BMP180;9980;51.020;7.772;2023-09-07T02:01:57;98033.00;;;17.10
19666;BMP180;9980;51.020;7.772;2023-09-07T02:04:25;98038.00;;;17.10
19666;BMP180;9980;51.020;7.772;2023-09-07T02:06:52;98050.00;;;17.10
19666;BMP180;9980;51.020;7.772;2023-09-07T02:09:19;98045.00;;;17.00
19666;BMP180;9980;51.020;7.772;2023-09-07T02:11:46;98032.00;;;17.00
19666;BMP180;9980;51.020;7.772;2023-09-07T02:14:13;98037.00;;;17.00
19666;BMP180;9980;51.020;7.772;2023-09-07T02:16:40;98037.00;;;16.90
19666;BMP180;9980;51.020;7.772;2023-09-07T02:19:07;98032.00;;;16.90
19666;BMP180;9980;51.020;7.772;2023-09-07T02:21:34;98036.00;;;16.90
19666;BMP180;9980;51.020;7.772;2023-09-07T02:24:01;98059.00;;;16.80
19666;BMP180;9980;51.020;7.772;2023-09-07T02:26:28;98047.00;;;16.80
19666;BMP180;9980;51.020;7.772;2023-09-07T02:28:55;98021.00;;;16.80
19666;BMP180;9980;51.020;7.772;2023-09-07T02:31:23;98017.00;;;16.80
19666;BMP180;9980;51.020;7.772;2023-09-07T02:33:50;98021.00;;;16.70
19666;BMP180;9980;51.020;7.772;2023-09-07T02:36:17;98031.00;;;16.70
19666;BMP180;9980;51.020;7.772;2023-09-07T02:38:44;98031.00;;;16.70
19666;BMP180;9980;51.020;7.772;2023-09-07T02:41:12;98028.00;;;16.70
19666;BMP180;9980;51.020;7.772;2023-09-07T02:43:39;98035.00;;;16.60
19666;BMP180;9980;51.020;7.772;2023-09-07T02:46:06;98026.00;;;16.60
19666;BMP180;9980;51.020;7.772;2023-09-07T02:48:33;98029.00;;;16.60
19666;BMP180;9980;51.020;7.772;2023-09-07T02:51:01;98039.00;;;16.50
19666;BMP180;9980;51.020;7.772;2023-09-07T02:53:29;98028.00;;;16.50
19666;BMP180;9980;51.020;7.772;2023-09-07T02:55:56;98030.00;;;16.50
19666;BMP180;9980;51.020;7.772;2023-09-07T02:58:24;98021.00;;;16.40
19666;BMP180;9980;51.020;7.772;2023-09-07T03:00:52;98025.00;;;16.40
19666;BMP180;9980;51.020;7.772;2023-09-07T03:03:21;98017.00;;;16.40
19666;BMP180;9980;51.020;7.772;2023-09-07T03:05:48;98029.00;;;16.40
19666;BMP180;9980;51.020;7.772;2023-09-07T03:08:16;98013.00;;;16.30
19666;BMP180;9980;51.020;7.772;2023-09-07T03:10:44;98007.00;;;16.30
19666;BMP180;9980;51.020;7.772;2023-09-07T03:13:11;98009.00;;;16.30
19666;BMP180;9980;51.020;7.772;2023-09-07T03:15:38;98033.00;;;16.20
19666;BMP180;9980;51.020;7.772;2023-09-07T03:18:09;98007.00;;;16.20
19666;BMP180;9980;51.020;7.772;2023-09-07T03:20:37;98023.00;;;16.20
19666;BMP180;9980;51.020;7.772;2023-09-07T03:23:05;98018.00;;;16.20
19666;BMP180;9980;51.020;7.772;2023-09-07T03:25:32;98033.00;;;16.20
19666;BMP180;9980;51.020;7.772;2023-09-07T03:27:59;98026.00;;;16.10
19666;BMP180;9980;51.020;7.772;2023-09-07T03:30:26;98015.00;;;16.10
19666;BMP180;9980;51.020;7.772;2023-09-07T03:32:54;98011.00;;;16.10
19666;BMP180;9980;51.020;7.772;2023-09-07T03:35:21;98011.00;;;16.10
19666;BMP180;9980;51.020;7.772;2023-09-07T03:37:49;98011.00;;;16.00
19666;BMP180;9980;51.020;7.772;2023-09-07T03:40:16;98006.00;;;16.00
19666;BMP180;9980;51.020;7.772;2023-09-07T03:42:44;98003.00;;;16.00
19666;BMP180;9980;51.020;7.772;2023-09-07T03:45:13;98024.00;;;16.00
19666;BMP180;9980;51.020;7.772;2023-09-07T03:47:41;98024.00;;;16.00
19666;BMP180;9980;51.020;7.772;2023-09-07T03:50:10;98007.00;;;15.90
19666;BMP180;9980;51.020;7.772;2023-09-07T03:52:37;98016.00;;;15.90
19666;BMP180;9980;51.020;7.772;2023-09-07T03:55:06;98012.00;;;15.90
19666;BMP180;9980;51.020;7.772;2023-09-07T03:57:33;98011.00;;;15.80
19666;BMP180;9980;51.020;7.772;2023-09-07T04:00:00;98011.00;;;15.80
19666;BMP180;9980;51.020;7.772;2023-09-07T04:02:28;98016.00;;;15.80
19666;BMP180;9980;51.020;7.772;2023-09-07T04:04:55;98006.00;;;15.80
19666;BMP180;9980;51.020;7.772;2023-09-07T04:07:22;98015.00;;;15.80
19666;BMP180;9980;51.020;7.772;2023-09-07T04:09:50;98008.00;;;15.70
19666;BMP180;9980;51.020;7.772;2023-09-07T04:12:17;98023.00;;;15.70
19666;BMP180;9980;51.020;7.772;2023-09-07T04:14:44;98017.00;;;15.70
19666;BMP180;9980;51.020;7.772;2023-09-07T04:17:11;98015.00;;;15.60
19666;BMP180;9980;51.020;7.772;2023-09-07T04:19:38;98014.00;;;15.60
19666;BMP180;9980;51.020;7.772;2023-09-07T04:22:06;98025.00;;;15.60
19666;BMP180;9980;51.020;7.772;2023-09-07T04:24:33;98012.00;;;15.60
19666;BMP180;9980;51.020;7.772;2023-09-07T04:27:02;98008.00;;;15.50
19666;BMP180;9980;51.020;7.772;2023-09-07T04:29:31;98012.00;;;15.50
19666;BMP180;9980;51.020;7.772;2023-09-07T04:31:58;98021.00;;;15.50
19666;BMP180;9980;51.020;7.772;2023-09-07T04:34:25;98017.00;;;15.50
19666;BMP180;9980;51.020;7.772;2023-09-07T04:36:53;98006.00;;;15.40
19666;BMP180;9980;51.020;7.772;2023-09-07T04:39:20;98021.00;;;15.40
19666;BMP180;9980;51.020;7.772;2023-09-07T04:41:48;98021.00;;;15.40
19666;BMP180;9980;51.020;7.772;2023-09-07T04:44:15;98008.00;;;15.40
19666;BMP180;9980;51.020;7.772;2023-09-07T04:46:42;98025.00;;;15.30
19666;BMP180;9980;51.020;7.772;2023-09-07T04:49:10;98018.00;;;15.30
19666;BMP180;9980;51.020;7.772;2023-09-07T04:51:37;98011.00;;;15.30
19666;BMP180;9980;51.020;7.772;2023-09-07T04:54:04;98021.00;;;15.30
19666;BMP180;9980;51.020;7.772;2023-09-07T04:56:31;98033.00;;;15.30
19666;BMP180;9980;51.020;7.772;2023-09-07T04:58:58;98029.00;;;15.20
19666;BMP180;9980;51.020;7.772;2023-09-07T05:01:26;98026.00;;;15.20
19666;BMP180;9980;51.020;7.772;2023-09-07T05:03:54;98014.00;;;15.20
19666;BMP180;9980;51.020;7.772;2023-09-07T05:06:22;98013.00;;;15.20
19666;BMP180;9980;51.020;7.772;2023-09-07T05:08:53;98021.00;;;15.20
19666;BMP180;9980;51.020;7.772;2023-09-07T05:11:20;98016.00;;;15.10
19666;BMP180;9980;51.020;7.772;2023-09-07T05:13:46;98012.00;;;15.10
19666;BMP180;9980;51.020;7.772;2023-09-07T05:16:13;98025.00;;;15.10
19666;BMP180;9980;51.020;7.772;2023-09-07T05:18:41;98017.00;;;15.10
19666;BMP180;9980;51.020;7.772;2023-09-07T05:21:14;98026.00;;;15.00
19666;BMP180;9980;51.020;7.772;2023-09-07T05:23:42;98036.00;;;15.10
19666;BMP180;9980;51.020;7.772;2023-09-07T05:26:10;98031.00;;;15.00
19666;BMP180;9980;51.020;7.772;2023-09-07T05:28:40;98036.00;;;15.00
19666;BMP180;9980;51.020;7.772;2023-09-07T05:31:07;98037.00;;;15.00
19666;BMP180;9980;51.020;7.772;2023-09-07T05:33:35;98038.00;;;15.00
19666;BMP180;9980;51.020;7.772;2023-09-07T05:36:03;98037.00;;;15.00
19666;BMP180;9980;51.020;7.772;2023-09-07T05:38:30;98045.00;;;15.00
19666;BMP180;9980;51.020;7.772;2023-09-07T05:41:00;98047.00;;;15.10
19666;BMP180;9980;51.020;7.772;2023-09-07T05:43:27;98049.00;;;15.10
19666;BMP180;9980;51.020;7.772;2023-09-07T05:45:54;98042.00;;;15.10
19666;BMP180;9980;51.020;7.772;2023-09-07T05:48:22;98041.00;;;15.10
19666;BMP180;9980;51.020;7.772;2023-09-07T05:50:49;98039.00;;;15.10
19666;BMP180;9980;51.020;7.772;2023-09-07T05:53:18;98053.00;;;15.10
19666;BMP180;9980;51.020;7.772;2023-09-07T05:55:45;98046.00;;;15.20
19666;BMP180;9980;51.020;7.772;2023-09-07T05:58:13;98053.00;;;15.20
19666;BMP180;9980;51.020;7.772;2023-09-07T06:00:43;98037.00;;;15.20
19666;BMP180;9980;51.020;7.772;2023-09-07T06:03:11;98045.00;;;15.30
19666;BMP180;9980;51.020;7.772;2023-09-07T06:05:39;98028.00;;;15.30
19666;BMP180;9980;51.020;7.772;2023-09-07T06:08:08;98048.00;;;15.40
19666;BMP180;9980;51.020;7.772;2023-09-07T06:10:35;98036.00;;;15.40
19666;BMP180;9980;51.020;7.772;2023-09-07T06:13:03;98050.00;;;15.50
19666;BMP180;9980;51.020;7.772;2023-09-07T06:15:31;98040.00;;;15.50
19666;BMP180;9980;51.020;7.772;2023-09-07T06:17:58;98042.00;;;15.60
19666;BMP180;9980;51.020;7.772;2023-09-07T06:20:26;98039.00;;;15.60
19666;BMP180;9980;51.020;7.772;2023-09-07T06:22:55;98052.00;;;15.70
19666;BMP180;9980;51.020;7.772;2023-09-07T06:25:22;98037.00;;;15.80
19666;BMP180;9980;51.020;7.772;2023-09-07T06:27:50;98032.00;;;15.90
19666;BMP180;9980;51.020;7.772;2023-09-07T06:30:18;98057.00;;;15.90
19666;BMP180;9980;51.020;7.772;2023-09-07T06:32:45;98042.00;;;16.00
19666;BMP180;9980;51.020;7.772;2023-09-07T06:35:14;98037.00;;;16.10
19666;BMP180;9980;51.020;7.772;2023-09-07T06:37:42;98040.00;;;16.20
19666;BMP180;9980;51.020;7.772;2023-09-07T06:40:12;98046.00;;;16.30
19666;BMP180;9980;51.020;7.772;2023-09-07T06:42:41;98035.00;;;16.40
19666;BMP180;9980;51.020;7.772;2023-09-07T06:45:13;98047.00;;;16.50
19666;BMP180;9980;51.020;7.772;2023-09-07T06:47:40;98061.00;;;16.60
19666;BMP180;9980;51.020;7.772;2023-09-07T06:50:09;98043.00;;;16.70
19666;BMP180;9980;51.020;7.772;2023-09-07T06:52:37;98059.00;;;16.80
19666;BMP180;9980;51.020;7.772;2023-09-07T06:55:05;98044.00;;;16.90
19666;BMP180;9980;51.020;7.772;2023-09-07T06:57:32;98044.00;;;17.00
19666;BMP180;9980;51.020;7.772;2023-09-07T07:00:03;98055.00;;;17.10
19666;BMP180;9980;51.020;7.772;2023-09-07T07:02:32;98062.00;;;17.20
19666;BMP180;9980;51.020;7.772;2023-09-07T07:05:00;98063.00;;;17.40
19666;BMP180;9980;51.020;7.772;2023-09-07T07:07:29;98056.00;;;17.50
19666;BMP180;9980;51.020;7.772;2023-09-07T07:09:57;98054.00;;;17.70
19666;BMP180;9980;51.020;7.772;2023-09-07T07:12:24;98059.00;;;17.80
19666;BMP180;9980;51.020;7.772;2023-09-07T07:14:51;98059.00;;;17.90
19666;BMP180;9980;51.020;7.772;2023-09-07T07:17:18;98065.00;;;18.10
19666;BMP180;9980;51.020;7.772;2023-09-07T07:19:45;98065.00;;;18.20
19666;BMP180;9980;51.020;7.772;2023-09-07T07:22:13;98059.00;;;18.30
19666;BMP180;9980;51.020;7.772;2023-09-07T07:24:39;98047.00;;;18.50
19666;BMP180;9980;51.020;7.772;2023-09-07T07:27:07;98059.00;;;18.60
19666;BMP180;9980;51.020;7.772;2023-09-07T07:29:35;98051.00;;;18.80
19666;BMP180;9980;51.020;7.772;2023-09-07T07:32:03;98062.00;;;19.00
19666;BMP180;9980;51.020;7.772;2023-09-07T07:34:31;98053.00;;;19.10
19666;BMP180;9980;51.020;7.772;2023-09-07T07:36:58;98060.00;;;19.30
19666;BMP180;9980;51.020;7.772;2023-09-07T07:39:25;98051.00;;;19.50
19666;BMP180;9980;51.020;7.772;2023-09-07T07:41:52;98054.00;;;19.60
19666;BMP180;9980;51.020;7.772;2023-09-07T07:44:19;98055.00;;;19.80
19666;BMP180;9980;51.020;7.772;2023-09-07T07:46:47;98050.00;;;20.00
19666;BMP180;9980;51.020;7.772;2023-09-07T07:49:15;98059.00;;;20.20
19666;BMP180;9980;51.020;7.772;2023-09-07T07:51:42;98063.00;;;20.40
19666;BMP180;9980;51.020;7.772;2023-09-07T07:54:10;98062.00;;;20.60
19666;BMP180;9980;51.020;7.772;2023-09-07T07:56:39;98053.00;;;20.80
19666;BMP180;9980;51.020;7.772;2023-09-07T07:59:07;98064.00;;;21.00
19666;BMP180;9980;51.020;7.772;2023-09-07T08:01:34;98067.00;;;21.20
19666;BMP180;9980;51.020;7.772;2023-09-07T08:04:04;98062.00;;;21.40
19666;BMP180;9980;51.020;7.772;2023-09-07T08:06:32;98052.00;;;21.50
19666;BMP180;9980;51.020;7.772;2023-09-07T08:08:59;98055.00;;;21.70
19666;BMP180;9980;51.020;7.772;2023-09-07T08:11:26;98054.00;;;21.90
19666;BMP180;9980;51.020;7.772;2023-09-07T08:13:54;98059.00;;;22.10
19666;BMP180;9980;51.020;7.772;2023-09-07T08:16:21;98064.00;;;22.30
19666;BMP180;9980;51.020;7.772;2023-09-07T08:18:49;98053.00;;;22.50
19666;BMP180;9980;51.020;7.772;2023-09-07T08:21:17;98066.00;;;22.60
19666;BMP180;9980;51.020;7.772;2023-09-07T08:23:45;98064.00;;;22.80
19666;BMP180;9980;51.020;7.772;2023-09-07T08:26:12;98058.00;;;23.00
19666;BMP180;9980;51.020;7.772;2023-09-07T08:28:42;98060.00;;;23.20
19666;BMP180;9980;51.020;7.772;2023-09-07T08:31:13;98049.00;;;23.30
19666;BMP180;9980;51.020;7.772;2023-09-07T08:33:49;98052.00;;;23.50
19666;BMP180;9980;51.020;7.772;2023-09-07T08:36:18;98060.00;;;23.60
19666;BMP180;9980;51.020;7.772;2023-09-07T08:38:51;98047.00;;;23.80
19666;BMP180;9980;51.020;7.772;2023-09-07T08:41:21;98049.00;;;23.90
19666;BMP180;9980;51.020;7.772;2023-09-07T08:43:49;98055.00;;;24.10
19666;BMP180;9980;51.020;7.772;2023-09-07T08:46:20;98056.00;;;24.20
19666;BMP180;9980;51.020;7.772;2023-09-07T08:48:50;98059.00;;;24.30
19666;BMP180;9980;51.020;7.772;2023-09-07T08:51:19;98055.00;;;24.50
19666;BMP180;9980;51.020;7.772;2023-09-07T08:53:46;98047.00;;;24.60
19666;BMP180;9980;51.020;7.772;2023-09-07T08:56:14;98049.00;;;24.80
19666;BMP180;9980;51.020;7.772;2023-09-07T08:58:43;98039.00;;;24.90
19666;BMP180;9980;51.020;7.772;2023-09-07T09:01:12;98054.00;;;25.00
19666;BMP180;9980;51.020;7.772;2023-09-07T09:03:42;98042.00;;;25.10
19666;BMP180;9980;51.020;7.772;2023-09-07T09:06:10;98034.00;;;25.20
19666;BMP180;9980;51.020;7.772;2023-09-07T09:08:48;98047.00;;;25.30
19666;BMP180;9980;51.020;7.772;2023-09-07T09:11:20;98045.00;;;25.40
19666;BMP180;9980;51.020;7.772;2023-09-07T09:13:52;98041.00;;;25.60
19666;BMP180;9980;51.020;7.772;2023-09-07T09:16:20;98036.00;;;25.70
19666;BMP180;9980;51.020;7.772;2023-09-07T09:18:56;98046.00;;;25.80
19666;BMP180;9980;51.020;7.772;2023-09-07T09:21:26;98045.00;;;25.90
19666;BMP180;9980;51.020;7.772;2023-09-07T09:23:56;98040.00;;;26.00
19666;BMP180;9980;51.020;7.772;2023-09-07T09:26:23;98030.00;;;26.20
19666;BMP180;9980;51.020;7.772;2023-09-07T09:28:56;98032.00;;;26.30
19666;BMP180;9980;51.020;7.772;2023-09-07T09:31:24;98044.00;;;26.40
19666;BMP180;9980;51.020;7.772;2023-09-07T09:33:52;98032.00;;;26.50
19666;BMP180;9980;51.020;7.772;2023-09-07T09:36:20;98023.00;;;26.70
19666;BMP180;9980;51.020;7.772;2023-09-07T09:38:49;98034.00;;;26.80
19666;BMP180;9980;51.020;7.772;2023-09-07T09:41:17;98014.00;;;26.90
19666;BMP180;9980;51.020;7.772;2023-09-07T09:43:46;98023.00;;;27.00
19666;BMP180;9980;51.020;7.772;2023-09-07T09:46:17;98003.00;;;27.20
19666;BMP180;9980;51.020;7.772;2023-09-07T09:48:45;98010.00;;;27.30
19666;BMP180;9980;51.020;7.772;2023-09-07T09:51:14;98010.00;;;27.40
19666;BMP180;9980;51.020;7.772;2023-09-07T09:53:42;98009.00;;;27.50
19666;BMP180;9980;51.020;7.772;2023-09-07T09:56:10;98016.00;;;27.60
19666;BMP180;9980;51.020;7.772;2023-09-07T09:58:38;98004.00;;;27.70
19666;BMP180;9980;51.020;7.772;2023-09-07T10:01:06;98014.00;;;27.80
19666;BMP180;9980;51.020;7.772;2023-09-07T10:03:44;98008.00;;;27.90
19666;BMP180;9980;51.020;7.772;2023-09-07T10:06:24;98006.00;;;28.00
19666;BMP180;9980;51.020;7.772;2023-09-07T10:11:36;97993.00;;;28.20
19666;BMP180;9980;51.020;7.772;2023-09-07T10:14:07;98001.00;;;28.30
19666;BMP180;9980;51.020;7.772;2023-09-07T10:16:53;98011.00;;;28.40
19666;BMP180;9980;51.020;7.772;2023-09-07T10:19:25;98003.00;;;28.50
19666;BMP180;9980;51.020;7.772;2023-09-07T10:21:56;98008.00;;;28.60
19666;BMP180;9980;51.020;7.772;2023-09-07T10:24:34;97994.00;;;28.70
19666;BMP180;9980;51.020;7.772;2023-09-07T10:27:08;98007.00;;;28.80
19666;BMP180;9980;51.020;7.772;2023-09-07T10:29:47;97997.00;;;28.90
19666;BMP180;9980;51.020;7.772;2023-09-07T10:32:21;97992.00;;;29.00
19666;BMP180;9980;51.020;7.772;2023-09-07T10:34:50;97982.00;;;29.10
19666;BMP180;9980;51.020;7.772;2023-09-07T10:37:17;98000.00;;;29.20
19666;BMP180;9980;51.020;7.772;2023-09-07T10:39:45;97993.00;;;29.30
19666;BMP180;9980;51.020;7.772;2023-09-07T10:42:23;97988.00;;;29.30
19666;BMP180;9980;51.020;7.772;2023-09-07T10:44:52;97982.00;;;29.40
19666;BMP180;9980;51.020;7.772;2023-09-07T10:47:19;97989.00;;;29.50
19666;BMP180;9980;51.020;7.772;2023-09-07T10:49:48;97977.00;;;29.60
19666;BMP180;9980;51.020;7.772;2023-09-07T10:52:15;97980.00;;;29.70
19666;BMP180;9980;51.020;7.772;2023-09-07T10:54:42;97983.00;;;29.80
19666;BMP180;9980;51.020;7.772;2023-09-07T10:57:13;97990.00;;;29.80
19666;BMP180;9980;51.020;7.772;2023-09-07T10:59:45;97973.00;;;29.90
19666;BMP180;9980;51.020;7.772;2023-09-07T11:02:15;97976.00;;;30.00
19666;BMP180;9980;51.020;7.772;2023-09-07T11:04:42;97980.00;;;30.10
19666;BMP180;9980;51.020;7.772;2023-09-07T11:07:10;97963.00;;;30.10
19666;BMP180;9980;51.020;7.772;2023-09-07T11:09:42;97963.00;;;30.20
19666;BMP180;9980;51.020;7.772;2023-09-07T11:12:13;97962.00;;;30.20
19666;BMP180;9980;51.020;7.772;2023-09-07T11:14:42;97959.00;;;30.30
19666;BMP180;9980;51.020;7.772;2023-09-07T11:17:10;97963.00;;;30.40
19666;BMP180;9980;51.020;7.772;2023-09-07T11:19:37;97952.00;;;30.50
19666;BMP180;9980;51.020;7.772;2023-09-07T11:22:04;97954.00;;;30.60
19666;BMP180;9980;51.020;7.772;2023-09-07T11:24:34;97953.00;;;30.60
19666;BMP180;9980;51.020;7.772;2023-09-07T11:27:01;97958.00;;;30.70
19666;BMP180;9980;51.020;7.772;2023-09-07T11:29:32;97947.00;;;30.80
19666;BMP180;9980;51.020;7.772;2023-09-07T11:32:12;97956.00;;;30.80
19666;BMP180;9980;51.020;7.772;2023-09-07T11:34:51;97943.00;;;30.80
19666;BMP180;9980;51.020;7.772;2023-09-07T11:37:24;97951.00;;;30.90
19666;BMP180;9980;51.020;7.772;2023-09-07T11:39:52;97952.00;;;31.00
19666;BMP180;9980;51.020;7.772;2023-09-07T11:42:19;97944.00;;;31.00
19666;BMP180;9980;51.020;7.772;2023-09-07T11:44:46;97941.00;;;31.10
19666;BMP180;9980;51.020;7.772;2023-09-07T11:47:13;97952.00;;;31.10
19666;BMP180;9980;51.020;7.772;2023-09-07T11:49:41;97951.00;;;31.20
19666;BMP180;9980;51.020;7.772;2023-09-07T11:52:08;97947.00;;;31.30
19666;BMP180;9980;51.020;7.772;2023-09-07T11:54:35;97958.00;;;31.30
19666;BMP180;9980;51.020;7.772;2023-09-07T11:57:02;97953.00;;;31.40
19666;BMP180;9980;51.020;7.772;2023-09-07T11:59:29;97944.00;;;31.40
19666;BMP180;9980;51.020;7.772;2023-09-07T12:02:06;97952.00;;;31.50
19666;BMP180;9980;51.020;7.772;2023-09-07T12:04:34;97945.00;;;31.50
19666;BMP180;9980;51.020;7.772;2023-09-07T12:07:07;97958.00;;;31.60
19666;BMP180;9980;51.020;7.772;2023-09-07T12:09:34;97954.00;;;31.60
19666;BMP180;9980;51.020;7.772;2023-09-07T12:12:01;97946.00;;;31.70
19666;BMP180;9980;51.020;7.772;2023-09-07T12:14:28;97952.00;;;31.70
19666;BMP180;9980;51.020;7.772;2023-09-07T12:16:54;97943.00;;;31.70
19666;BMP180;9980;51.020;7.772;2023-09-07T12:19:22;97951.00;;;31.80
19666;BMP180;9980;51.020;7.772;2023-09-07T12:21:50;97944.00;;;31.80
19666;BMP180;9980;51.020;7.772;2023-09-07T12:24:18;97938.00;;;31.90
19666;BMP180;9980;51.020;7.772;2023-09-07T12:26:45;97938.00;;;31.90
19666;BMP180;9980;51.020;7.772;2023-09-07T12:29:12;97940.00;;;32.00
19666;BMP180;9980;51.020;7.772;2023-09-07T12:31:39;97935.00;;;32.10
19666;BMP180;9980;51.020;7.772;2023-09-07T12:34:06;97938.00;;;32.10
19666;BMP180;9980;51.020;7.772;2023-09-07T12:36:35;97939.00;;;32.20
19666;BMP180;9980;51.020;7.772;2023-09-07T12:39:02;97933.00;;;32.20
19666;BMP180;9980;51.020;7.772;2023-09-07T12:41:30;97934.00;;;32.20
19666;BMP180;9980;51.020;7.772;2023-09-07T12:44:00;97934.00;;;32.30
19666;BMP180;9980;51.020;7.772;2023-09-07T12:46:26;97929.00;;;32.30
19666;BMP180;9980;51.020;7.772;2023-09-07T12:48:53;97916.00;;;32.40
19666;BMP180;9980;51.020;7.772;2023-09-07T12:51:20;97933.00;;;32.40
19666;BMP180;9980;51.020;7.772;2023-09-07T12:53:47;97924.00;;;32.40
19666;BMP180;9980;51.020;7.772;2023-09-07T12:56:15;97919.00;;;32.50
19666;BMP180;9980;51.020;7.772;2023-09-07T12:58:42;97931.00;;;32.50
19666;BMP180;9980;51.020;7.772;2023-09-07T13:01:09;97912.00;;;32.50
19666;BMP180;9980;51.020;7.772;2023-09-07T13:03:42;97909.00;;;32.60
19666;BMP180;9980;51.020;7.772;2023-09-07T13:06:09;97909.00;;;32.60
19666;BMP180;9980;51.020;7.772;2023-09-07T13:08:36;97907.00;;;32.70
19666;BMP180;9980;51.020;7.772;2023-09-07T13:11:03;97905.00;;;32.70
19666;BMP180;9980;51.020;7.772;2023-09-07T13:13:30;97911.00;;;32.70
19666;BMP180;9980;51.020;7.772;2023-09-07T13:15:58;97904.00;;;32.80
19666;BMP180;9980;51.020;7.772;2023-09-07T13:18:25;97908.00;;;32.80
19666;BMP180;9980;51.020;7.772;2023-09-07T13:20:53;97907.00;;;32.80
19666;BMP180;9980;51.020;7.772;2023-09-07T13:23:27;97908.00;;;32.90
19666;BMP180;9980;51.020;7.772;2023-09-07T13:25:57;97906.00;;;32.90
19666;BMP180;9980;51.020;7.772;2023-09-07T13:28:24;97896.00;;;32.90
19666;BMP180;9980;51.020;7.772;2023-09-07T13:30:51;97897.00;;;32.90
19666;BMP180;9980;51.020;7.772;2023-09-07T13:33:18;97900.00;;;33.00
19666;BMP180;9980;51.020;7.772;2023-09-07T13:35:45;97894.00;;;33.00
19666;BMP180;9980;51.020;7.772;2023-09-07T13:38:13;97902.00;;;33.00
19666;BMP180;9980;51.020;7.772;2023-09-07T13:40:40;97892.00;;;33.10
19666;BMP180;9980;51.020;7.772;2023-09-07T13:43:07;97899.00;;;33.10
19666;BMP180;9980;51.020;7.772;2023-09-07T13:45:34;97892.00;;;33.10
19666;BMP180;9980;51.020;7.772;2023-09-07T13:48:01;97892.00;;;33.10
19666;BMP180;9980;51.020;7.772;2023-09-07T13:50:29;97877.00;;;33.10
19666;BMP180;9980;51.020;7.772;2023-09-07T13:52:56;97879.00;;;33.20
19666;BMP180;9980;51.020;7.772;2023-09-07T13:55:23;97881.00;;;33.20
19666;BMP180;9980;51.020;7.772;2023-09-07T13:57:51;97891.00;;;33.20
19666;BMP180;9980;51.020;7.772;2023-09-07T14:00:18;97884.00;;;33.20
19666;BMP180;9980;51.020;7.772;2023-09-07T14:02:45;97882.00;;;33.20
19666;BMP180;9980;51.020;7.772;2023-09-07T14:05:13;97873.00;;;33.20
19666;BMP180;9980;51.020;7.772;2023-09-07T14:07:40;97876.00;;;33.20
19666;BMP180;9980;51.020;7.772;2023-09-07T14:10:07;97883.00;;;33.20
19666;BMP180;9980;51.020;7.772;2023-09-07T14:12:34;97887.00;;;33.20
19666;BMP180;9980;51.020;7.772;2023-09-07T14:15:01;97879.00;;;33.20
19666;BMP180;9980;51.020;7.772;2023-09-07T14:17:28;97877.00;;;33.30
19666;BMP180;9980;51.020;7.772;2023-09-07T14:19:55;97886.00;;;33.30
19666;BMP180;9980;51.020;7.772;2023-09-07T14:22:22;97878.00;;;33.30
19666;BMP180;9980;51.020;7.772;2023-09-07T14:24:49;97878.00;;;33.30
19666;BMP180;9980;51.020;7.772;2023-09-07T14:27:16;97864.00;;;33.30
19666;BMP180;9980;51.020;7.772;2023-09-07T14:29:43;97867.00;;;33.30